Time;durP1;ratioP1;P1;durP2;ratioP2;P2;SDS_P1;SDS_P2;PMS_P1;PMS_P2;Temp;Humidity;BMP_temperature;BMP_pressure;BME280_temperature;BME280_humidity;BME280_pressure;Samples;Min_cycle;Max_cycle;Signal;HPM_P1;HPM_P2
2022/05/16 00:01:47;;;;;;;13.05;4.00;;;13.40;99.90;;;;;;4980585;28;20051;-81
2022/05/16 00:04:13;;;;;;;11.00;3.50;;;13.40;99.90;;;;;;4976009;28;20504;-84
2022/05/16 00:06:39;;;;;;;10.27;4.43;;;13.30;99.90;;;;;;4957794;28;20826;-84
2022/05/16 00:09:05;;;;;;;13.93;4.63;;;13.40;99.90;;;;;;4957845;28;20415;-78
2022/05/16 00:11:31;;;;;;;13.27;3.97;;;13.30;99.90;;;;;;4959529;28;20062;-84
2022/05/16 00:13:57;;;;;;;10.25;4.07;;;13.30;99.90;;;;;;4975057;28;20054;-82
2022/05/16 00:16:24;;;;;;;10.27;4.35;;;13.30;99.90;;;;;;4957690;28;20081;-86
2022/05/16 00:18:51;;;;;;;11.80;4.90;;;13.30;99.90;;;;;;4959620;28;20058;-79
2022/05/16 00:21:18;;;;;;;11.63;4.38;;;13.20;99.90;;;;;;4957615;28;20066;-85
2022/05/16 00:23:44;;;;;;;12.60;4.53;;;13.20;99.90;;;;;;4973848;28;20062;-83
2022/05/16 00:26:10;;;;;;;13.90;6.55;;;13.20;99.90;;;;;;4975621;28;20045;-81
2022/05/16 00:28:36;;;;;;;11.35;5.22;;;13.10;99.90;;;;;;4963270;28;20388;-80
2022/05/16 00:31:03;;;;;;;10.75;4.95;;;13.10;99.90;;;;;;4962676;28;20043;-78
2022/05/16 00:33:29;;;;;;;17.25;5.07;;;13.00;99.90;;;;;;4978472;28;20121;-86
2022/05/16 00:35:54;;;;;;;10.43;4.82;;;13.00;99.90;;;;;;4957840;28;20051;-84
2022/05/16 00:38:20;;;;;;;11.57;4.40;;;13.00;99.90;;;;;;4957516;28;20057;-82
2022/05/16 00:40:46;;;;;;;10.88;4.63;;;12.90;99.90;;;;;;4957573;28;20133;-83
2022/05/16 00:43:13;;;;;;;11.88;4.90;;;12.90;99.90;;;;;;4974806;28;20138;-83
2022/05/16 00:45:40;;;;;;;11.10;5.50;;;12.90;99.90;;;;;;4958037;28;20063;-78
2022/05/16 00:48:06;;;;;;;13.23;4.22;;;12.90;99.90;;;;;;4957337;28;20047;-83
2022/05/16 00:50:39;;;;;;;14.73;4.97;;;12.80;99.90;;;;;;4958912;28;20061;-86
2022/05/16 00:53:05;;;;;;;13.88;5.05;;;12.80;99.90;;;;;;4957378;28;20059;-82
2022/05/16 00:55:34;;;;;;;13.85;5.70;;;12.80;99.90;;;;;;4974988;28;20054;-85
2022/05/16 00:58:07;;;;;;;10.80;5.03;;;12.70;99.90;;;;;;4957023;28;20126;-82
2022/05/16 01:00:36;;;;;;;11.27;4.45;;;12.70;99.90;;;;;;4958958;28;20403;-79
2022/05/16 01:05:54;;;;;;;14.27;5.03;;;12.60;99.90;;;;;;4975464;28;20495;-87
2022/05/16 01:08:24;;;;;;;12.93;4.45;;;12.60;99.90;;;;;;4957113;28;20050;-80
2022/05/16 01:10:55;;;;;;;8.85;4.30;;;12.50;99.90;;;;;;4974146;28;20054;-78
2022/05/16 01:13:26;;;;;;;12.23;4.07;;;12.50;99.90;;;;;;4956927;28;20101;-85
2022/05/16 01:15:52;;;;;;;8.10;4.05;;;12.50;99.90;;;;;;4957023;28;20051;-84
2022/05/16 01:18:22;;;;;;;11.13;4.22;;;12.50;99.90;;;;;;4976641;28;20062;-83
2022/05/16 01:21:25;;;;;;;14.18;4.97;;;12.50;99.90;;;;;;4976787;28;20047;-84
2022/05/16 01:23:55;;;;;;;11.18;4.05;;;12.40;99.90;;;;;;4974094;28;20117;-81
2022/05/16 01:26:24;;;;;;;17.13;4.57;;;12.40;99.90;;;;;;4973863;28;20051;-83
2022/05/16 01:28:52;;;;;;;8.65;4.07;;;12.40;99.90;;;;;;4973852;28;20109;-84
2022/05/16 01:31:18;;;;;;;8.65;3.75;;;12.40;99.90;;;;;;4958182;28;20059;-79
2022/05/16 01:33:44;;;;;;;9.15;4.00;;;12.40;99.90;;;;;;4980700;28;20800;-81
2022/05/16 01:36:10;;;;;;;15.05;4.43;;;12.40;99.90;;;;;;4979192;28;20109;-82
2022/05/16 01:38:38;;;;;;;7.38;3.92;;;12.40;99.90;;;;;;4958244;28;20142;-84
2022/05/16 01:41:10;;;;;;;10.55;3.78;;;12.40;99.90;;;;;;4957572;28;20463;-83
2022/05/16 01:43:39;;;;;;;7.45;3.72;;;12.40;99.90;;;;;;4974323;28;20086;-84
2022/05/16 01:46:07;;;;;;;7.28;3.50;;;12.40;99.90;;;;;;4974296;28;20050;-81
2022/05/16 01:48:34;;;;;;;13.82;4.38;;;12.40;99.90;;;;;;4959962;28;20054;-85
2022/05/16 01:51:07;;;;;;;9.75;3.53;;;12.40;99.90;;;;;;4967258;28;20545;-83
2022/05/16 01:53:32;;;;;;;13.20;4.03;;;12.40;99.90;;;;;;4955595;28;20051;-81
2022/05/16 01:55:58;;;;;;;7.85;3.88;;;12.40;99.90;;;;;;4956124;28;20042;-84
2022/05/16 01:58:25;;;;;;;15.32;3.08;;;12.40;99.90;;;;;;4972368;28;20047;-81
2022/05/16 02:00:52;;;;;;;10.02;3.47;;;12.40;99.90;;;;;;4975213;28;20060;-80
2022/05/16 02:03:18;;;;;;;18.85;3.78;;;12.40;99.90;;;;;;4955860;29;20062;-79
2022/05/16 02:05:45;;;;;;;8.40;3.75;;;12.40;99.90;;;;;;4942788;28;20114;-81
2022/05/16 02:08:13;;;;;;;9.13;3.53;;;12.40;99.90;;;;;;4955709;28;20062;-86
2022/05/16 02:10:40;;;;;;;8.52;2.65;;;12.40;99.90;;;;;;4973413;28;20152;-83
2022/05/16 02:13:08;;;;;;;11.70;3.88;;;12.40;99.90;;;;;;4975604;28;20058;-82
2022/05/16 02:15:37;;;;;;;6.32;3.13;;;12.40;99.90;;;;;;4973695;28;20146;-80
2022/05/16 02:18:04;;;;;;;7.13;3.55;;;12.30;99.90;;;;;;4973651;28;20046;-80
2022/05/16 02:20:30;;;;;;;7.22;3.35;;;12.30;99.90;;;;;;4976254;28;20058;-78
2022/05/16 02:25:46;;;;;;;6.78;3.00;;;12.30;99.90;;;;;;4973536;28;20113;-80
2022/05/16 02:28:16;;;;;;;12.05;2.95;;;12.30;99.90;;;;;;4976131;28;20047;-83
2022/05/16 02:30:43;;;;;;;11.55;3.40;;;12.30;99.90;;;;;;4955906;28;20090;-80
2022/05/16 02:33:10;;;;;;;5.93;2.92;;;12.30;99.90;;;;;;4973309;28;20419;-78
2022/05/16 02:35:36;;;;;;;8.93;2.50;;;12.30;99.90;;;;;;4957436;28;20382;-78
2022/05/16 02:38:03;;;;;;;10.60;2.85;;;12.20;99.90;;;;;;4971648;28;20058;-79
2022/05/16 02:40:32;;;;;;;7.90;3.50;;;12.20;99.90;;;;;;4954750;28;20063;-79
2022/05/16 02:42:58;;;;;;;5.07;2.42;;;12.20;99.90;;;;;;4957128;28;20094;-79
2022/05/16 02:45:25;;;;;;;6.93;2.42;;;12.20;99.90;;;;;;4972690;28;20665;-81
2022/05/16 02:47:51;;;;;;;6.75;2.70;;;12.20;99.90;;;;;;4955343;28;20062;-78
2022/05/16 02:50:23;;;;;;;6.63;2.60;;;12.10;99.90;;;;;;4972248;28;20058;-77
2022/05/16 02:52:58;;;;;;;5.95;2.75;;;12.10;99.90;;;;;;4971434;28;20066;-79
2022/05/16 02:55:24;;;;;;;7.07;2.40;;;12.10;99.90;;;;;;4956200;28;20089;-84
2022/05/16 03:00:25;;;;;;;11.32;2.90;;;12.00;99.90;;;;;;5200939;23;20074;-81
2022/05/16 03:02:51;;;;;;;6.82;2.10;;;12.00;99.90;;;;;;4967596;28;20054;-79
2022/05/16 03:05:17;;;;;;;9.20;2.60;;;12.00;99.90;;;;;;4973751;28;20060;-79
2022/05/16 03:07:43;;;;;;;5.50;2.50;;;12.00;99.90;;;;;;4974493;28;20058;-79
2022/05/16 03:10:15;;;;;;;5.18;2.20;;;12.00;99.90;;;;;;4975726;28;20081;-81
2022/05/16 03:12:45;;;;;;;6.70;1.98;;;12.00;99.90;;;;;;4974524;28;20050;-82
2022/05/16 03:15:13;;;;;;;8.05;2.60;;;12.00;99.90;;;;;;4993627;28;20077;-78
2022/05/16 03:17:40;;;;;;;7.03;2.35;;;11.90;99.90;;;;;;4974738;28;20116;-82
2022/05/16 03:20:12;;;;;;;8.05;2.60;;;11.90;99.90;;;;;;4974215;28;20101;-79
2022/05/16 03:22:37;;;;;;;5.03;2.15;;;11.90;99.90;;;;;;4975422;28;20058;-83
2022/05/16 03:25:04;;;;;;;6.63;2.40;;;11.90;99.90;;;;;;4993825;28;20042;-78
2022/05/16 03:27:30;;;;;;;7.80;1.98;;;11.90;99.90;;;;;;4998770;28;20082;-78
2022/05/16 03:29:56;;;;;;;8.88;2.20;;;11.90;99.90;;;;;;4974754;28;20054;-79
2022/05/16 03:32:22;;;;;;;7.70;2.33;;;12.00;99.90;;;;;;4992286;28;20053;-78
2022/05/16 03:34:50;;;;;;;6.13;2.33;;;12.00;99.90;;;;;;4992035;28;20058;-79
2022/05/16 03:37:17;;;;;;;8.30;2.55;;;12.00;99.90;;;;;;4958083;28;20057;-82
2022/05/16 03:42:30;;;;;;;6.18;2.22;;;12.00;99.90;;;;;;4997129;28;20077;-80
2022/05/16 03:44:56;;;;;;;6.22;2.13;;;12.00;99.90;;;;;;4958070;28;20050;-82
2022/05/16 03:47:21;;;;;;;9.77;2.15;;;12.10;99.90;;;;;;4992005;28;20180;-81
2022/05/16 03:49:48;;;;;;;7.72;2.35;;;12.10;99.90;;;;;;4974025;28;20050;-78
2022/05/16 03:52:14;;;;;;;6.32;2.03;;;12.10;99.90;;;;;;4973745;28;20054;-79
2022/05/16 03:54:40;;;;;;;5.93;2.03;;;12.10;99.90;;;;;;4974233;28;20046;-83
2022/05/16 03:57:06;;;;;;;8.32;2.80;;;12.10;99.90;;;;;;4976975;28;20054;-80
2022/05/16 03:59:33;;;;;;;6.75;2.30;;;12.20;99.90;;;;;;4992240;28;20064;-79
2022/05/16 04:01:58;;;;;;;7.10;2.50;;;12.20;99.90;;;;;;4991905;28;20397;-79
2022/05/16 04:04:27;;;;;;;6.75;2.67;;;12.20;99.90;;;;;;4992262;28;20051;-80
2022/05/16 04:06:53;;;;;;;7.85;2.28;;;12.20;99.90;;;;;;4974960;28;20401;-80
2022/05/16 04:09:19;;;;;;;4.35;1.95;;;12.20;99.90;;;;;;4993302;28;20422;-84
2022/05/16 04:11:45;;;;;;;6.65;2.28;;;12.20;99.90;;;;;;4977005;28;20050;-79
2022/05/16 04:14:11;;;;;;;6.28;1.90;;;12.30;99.90;;;;;;4992084;28;20051;-78
2022/05/16 04:16:37;;;;;;;6.32;2.55;;;12.30;99.90;;;;;;4993166;28;20043;-78
2022/05/16 04:19:07;;;;;;;6.22;1.95;;;12.30;99.90;;;;;;4973715;28;20526;-80
2022/05/16 04:21:35;;;;;;;6.63;2.33;;;12.30;99.90;;;;;;4942744;28;20050;-82
2022/05/16 04:24:01;;;;;;;6.75;2.28;;;12.40;99.90;;;;;;4994922;28;20160;-78
2022/05/16 04:26:27;;;;;;;6.45;2.20;;;12.40;99.90;;;;;;4977791;28;20054;-79
2022/05/16 04:28:53;;;;;;;13.93;3.15;;;12.40;99.90;;;;;;4979884;28;20504;-78
2022/05/16 04:31:19;;;;;;;6.45;2.08;;;12.50;99.90;;;;;;4999820;28;20109;-82
2022/05/16 04:33:45;;;;;;;9.15;2.58;;;12.50;99.90;;;;;;4977577;28;20049;-77
2022/05/16 04:36:11;;;;;;;4.72;2.20;;;12.60;99.90;;;;;;4961114;28;20062;-80
2022/05/16 04:38:37;;;;;;;8.00;3.03;;;12.60;99.90;;;;;;4994391;28;20125;-78
2022/05/16 04:43:47;;;;;;;7.40;1.93;;;12.70;99.90;;;;;;4977357;28;20054;-80
2022/05/16 04:46:13;;;;;;;5.85;2.08;;;12.80;99.90;;;;;;4976421;28;20410;-85
2022/05/16 04:48:39;;;;;;;5.43;1.85;;;12.80;99.90;;;;;;4996230;28;20060;-79
2022/05/16 04:51:05;;;;;;;5.97;2.00;;;12.90;99.90;;;;;;4997666;28;20043;-82
2022/05/16 04:53:31;;;;;;;5.05;1.70;;;12.90;99.90;;;;;;4976748;28;20082;-79
2022/05/16 04:55:57;;;;;;;6.50;1.98;;;13.00;99.90;;;;;;4994346;28;20125;-84
2022/05/16 04:58:23;;;;;;;11.05;2.10;;;13.00;99.90;;;;;;4994928;28;20046;-80
2022/05/16 05:00:49;;;;;;;6.45;2.40;;;13.10;99.90;;;;;;4976012;28;20142;-80
2022/05/16 05:03:15;;;;;;;7.97;2.35;;;13.10;99.90;;;;;;4993776;28;20093;-78
2022/05/16 05:05:41;;;;;;;5.97;1.90;;;13.10;99.90;;;;;;4992872;28;20092;-80
2022/05/16 05:08:08;;;;;;;6.18;1.90;;;13.10;99.90;;;;;;4995265;28;20050;-77
2022/05/16 05:16:11;;;;;;;4.93;1.90;;;13.00;99.90;;;;;;4976384;28;20053;-77
2022/05/16 05:18:38;;;;;;;4.47;1.95;;;13.00;99.90;;;;;;4976418;28;20415;-80
2022/05/16 05:21:03;;;;;;;6.20;2.42;;;13.00;99.90;;;;;;4976023;28;20057;-80
2022/05/16 05:23:30;;;;;;;5.68;2.10;;;13.10;99.90;;;;;;4993439;28;20057;-79
2022/05/16 05:25:57;;;;;;;6.82;2.10;;;13.30;99.90;;;;;;4996837;28;20406;-79
2022/05/16 05:28:23;;;;;;;6.65;2.05;;;13.40;99.90;;;;;;4995189;28;20058;-80
2022/05/16 05:30:49;;;;;;;6.93;2.05;;;13.60;99.90;;;;;;4975959;28;20053;-83
2022/05/16 05:33:15;;;;;;;9.45;2.72;;;13.80;99.90;;;;;;4975841;28;20049;-79
2022/05/16 05:35:41;;;;;;;9.75;2.30;;;14.00;99.90;;;;;;4993358;28;20050;-77
2022/05/16 05:38:07;;;;;;;6.28;2.00;;;14.20;99.90;;;;;;4975492;28;20069;-80
2022/05/16 05:40:32;;;;;;;8.75;2.60;;;14.50;99.90;;;;;;4976256;28;20062;-77
2022/05/16 05:43:04;;;;;;;5.25;1.77;;;14.60;99.90;;;;;;4995304;28;20070;-77
2022/05/16 05:45:29;;;;;;;12.73;2.38;;;14.80;99.90;;;;;;4992889;28;20061;-78
2022/05/16 05:47:55;;;;;;;7.40;2.15;;;14.90;99.90;;;;;;4975350;28;20058;-80
2022/05/16 05:50:21;;;;;;;5.97;1.90;;;15.10;99.90;;;;;;4993303;28;20090;-83
2022/05/16 05:52:47;;;;;;;8.75;2.28;;;15.40;99.90;;;;;;4977040;28;20081;-81
2022/05/16 05:55:13;;;;;;;6.38;1.92;;;15.40;99.90;;;;;;4977421;28;20112;-77
2022/05/16 05:57:39;;;;;;;8.82;2.60;;;15.50;99.90;;;;;;4995360;28;20053;-80
2022/05/16 06:00:09;;;;;;;6.38;2.08;;;15.40;99.90;;;;;;4974678;28;20053;-79
2022/05/16 06:02:40;;;;;;;8.82;2.22;;;15.20;99.90;;;;;;4992900;28;20050;-78
2022/05/16 06:05:17;;;;;;;7.40;2.67;;;15.20;99.90;;;;;;4974924;28;20050;-81
2022/05/16 06:07:43;;;;;;;9.15;2.25;;;15.00;99.90;;;;;;4992845;28;20155;-81
2022/05/16 06:10:09;;;;;;;5.63;2.40;;;14.90;99.90;;;;;;4975585;28;20406;-80
2022/05/16 06:12:35;;;;;;;5.65;2.35;;;14.80;99.90;;;;;;4992957;28;20129;-80
2022/05/16 06:15:02;;;;;;;7.15;2.03;;;14.90;99.90;;;;;;4993824;28;20498;-80
2022/05/16 06:17:28;;;;;;;6.40;2.03;;;14.90;99.90;;;;;;4996913;28;20474;-80
2022/05/16 06:19:54;;;;;;;11.20;2.50;;;14.90;99.90;;;;;;4994232;28;20506;-81
2022/05/16 06:22:20;;;;;;;10.88;2.55;;;15.00;99.90;;;;;;4992458;28;20491;-82
2022/05/16 06:27:31;;;;;;;5.68;2.38;;;15.20;99.90;;;;;;4974855;28;20486;-78
2022/05/16 06:29:57;;;;;;;5.93;2.08;;;15.20;99.90;;;;;;4958999;28;20405;-77
2022/05/16 06:32:24;;;;;;;7.10;2.25;;;15.30;99.90;;;;;;4974782;28;20050;-78
2022/05/16 06:34:51;;;;;;;7.28;2.10;;;15.30;99.90;;;;;;4975117;28;20102;-80
2022/05/16 06:37:18;;;;;;;6.18;2.40;;;15.40;99.90;;;;;;4995611;28;20131;-82
2022/05/16 06:39:45;;;;;;;7.82;2.20;;;15.50;99.90;;;;;;4992651;28;20062;-81
2022/05/16 06:42:12;;;;;;;9.88;2.47;;;15.90;99.90;;;;;;4990750;28;20050;-79
2022/05/16 06:44:38;;;;;;;6.75;2.40;;;16.10;99.90;;;;;;4973944;28;20141;-82
2022/05/16 06:47:05;;;;;;;5.53;2.10;;;16.50;99.90;;;;;;4991966;28;20050;-80
2022/05/16 06:49:32;;;;;;;11.00;2.78;;;16.80;99.90;;;;;;4992028;28;20057;-81
2022/05/16 06:51:58;;;;;;;13.23;2.60;;;17.00;99.90;;;;;;4993321;28;20112;-80
2022/05/16 06:54:24;;;;;;;9.15;2.33;;;17.00;99.90;;;;;;4976826;28;20053;-79
2022/05/16 06:56:50;;;;;;;7.22;2.58;;;17.00;99.90;;;;;;4974366;28;20120;-82
2022/05/16 06:59:16;;;;;;;7.88;2.47;;;16.90;99.90;;;;;;4991737;28;20052;-83
2022/05/16 07:01:42;;;;;;;9.13;2.78;;;16.90;99.90;;;;;;4992359;28;20058;-81
2022/05/16 07:04:07;;;;;;;10.57;2.80;;;16.90;99.90;;;;;;4993113;28;20050;-83
2022/05/16 07:06:33;;;;;;;10.05;2.90;;;16.90;99.90;;;;;;4994126;28;20054;-82
2022/05/16 07:08:59;;;;;;;9.00;2.65;;;17.00;99.90;;;;;;4976213;28;20062;-82
2022/05/16 07:11:25;;;;;;;8.20;2.45;;;17.10;99.90;;;;;;4992278;28;20046;-81
2022/05/16 07:13:51;;;;;;;6.03;2.10;;;17.10;99.90;;;;;;4974991;28;20089;-80
2022/05/16 07:16:17;;;;;;;5.85;2.20;;;17.20;99.90;;;;;;4993629;28;20481;-82
2022/05/16 07:18:43;;;;;;;8.73;2.50;;;17.20;99.90;;;;;;4993428;28;20058;-80
2022/05/16 07:21:08;;;;;;;11.60;3.33;;;17.30;99.90;;;;;;4973720;28;20501;-79
2022/05/16 07:23:34;;;;;;;9.18;2.55;;;17.40;99.90;;;;;;4991537;28;20124;-78
2022/05/16 07:28:45;;;;;;;8.30;2.35;;;17.70;99.90;;;;;;4994324;28;20054;-78
2022/05/16 07:31:11;;;;;;;7.55;2.20;;;17.90;99.90;;;;;;4992467;28;20051;-77
2022/05/16 07:33:37;;;;;;;11.32;2.42;;;18.20;99.90;;;;;;4993554;28;20058;-81
2022/05/16 07:36:03;;;;;;;9.52;2.65;;;18.50;99.90;;;;;;4994864;28;20050;-81
2022/05/16 07:38:30;;;;;;;7.07;2.40;;;18.80;99.70;;;;;;4992488;28;20054;-80
2022/05/16 07:40:56;;;;;;;7.80;2.53;;;19.10;99.20;;;;;;4992238;28;20450;-80
2022/05/16 07:43:24;;;;;;;7.20;2.38;;;19.30;98.60;;;;;;4975935;28;20050;-81
2022/05/16 07:45:50;;;;;;;5.68;1.95;;;19.40;98.20;;;;;;4991512;28;20058;-81
2022/05/16 07:48:16;;;;;;;9.23;2.83;;;19.70;97.80;;;;;;4974021;28;20064;-81
2022/05/16 07:50:44;;;;;;;9.38;2.70;;;20.00;97.60;;;;;;4974160;28;20061;-81
2022/05/16 07:53:12;;;;;;;9.02;2.88;;;20.30;97.10;;;;;;4974098;28;20051;-81
2022/05/16 07:55:50;;;;;;;8.80;2.45;;;20.30;96.30;;;;;;4973988;28;20228;-82
2022/05/16 07:58:16;;;;;;;8.60;2.70;;;20.50;95.00;;;;;;4994967;28;20050;-83
2022/05/16 08:00:43;;;;;;;9.52;2.88;;;20.40;95.70;;;;;;4999316;28;20418;-81
2022/05/16 08:03:14;;;;;;;7.43;2.38;;;20.50;95.80;;;;;;4995629;28;20064;-82
2022/05/16 08:05:41;;;;;;;11.07;2.50;;;20.60;96.00;;;;;;4994661;28;20498;-80
2022/05/16 08:10:53;;;;;;;8.50;2.50;;;20.70;95.20;;;;;;4977254;28;20545;-82
2022/05/16 08:13:19;;;;;;;7.75;2.42;;;20.70;95.60;;;;;;4977258;28;20058;-82
2022/05/16 08:15:45;;;;;;;6.22;2.45;;;20.80;95.40;;;;;;4996161;28;20055;-82
2022/05/16 08:18:12;;;;;;;11.35;3.03;;;21.00;95.00;;;;;;4983265;28;20050;-83
2022/05/16 08:20:42;;;;;;;9.75;3.25;;;21.00;94.20;;;;;;4977618;28;20073;-82
2022/05/16 08:23:09;;;;;;;7.85;3.17;;;21.10;94.30;;;;;;4976972;28;20061;-83
2022/05/16 08:25:34;;;;;;;9.85;2.65;;;21.40;93.80;;;;;;4976970;28;20082;-82
2022/05/16 08:28:00;;;;;;;14.35;3.45;;;21.50;93.60;;;;;;4961074;28;20097;-82
2022/05/16 08:30:27;;;;;;;8.10;2.53;;;21.50;93.00;;;;;;4978098;28;20402;-82
2022/05/16 08:32:57;;;;;;;11.18;2.92;;;21.70;93.40;;;;;;4998814;28;20525;-84
2022/05/16 08:35:23;;;;;;;6.63;2.35;;;22.10;93.10;;;;;;4994304;28;20062;-83
2022/05/16 08:40:55;;;;;;;7.78;2.65;;;22.30;92.30;;;;;;4997981;28;20081;-83
2022/05/16 08:43:33;;;;;;;7.65;2.25;;;22.40;91.80;;;;;;4997139;28;20060;-81
2022/05/16 08:46:14;;;;;;;10.80;2.80;;;22.40;92.20;;;;;;4977287;28;20057;-82
2022/05/16 08:48:47;;;;;;;10.07;2.42;;;22.10;91.50;;;;;;4997088;28;20058;-83
2022/05/16 08:51:33;;;;;;;8.70;3.10;;;22.10;92.20;;;;;;4995415;28;20046;-81
2022/05/16 08:54:17;;;;;;;6.10;2.50;;;22.00;92.30;;;;;;4996669;28;20122;-81
2022/05/16 08:56:46;;;;;;;8.07;2.72;;;22.00;93.10;;;;;;4996329;28;20086;-82
2022/05/16 08:59:14;;;;;;;8.95;2.80;;;22.30;92.30;;;;;;4994338;28;20471;-81
2022/05/16 09:01:50;;;;;;;10.48;2.92;;;22.40;92.20;;;;;;4996020;28;20406;-81
2022/05/16 09:05:02;;;;;;;9.80;2.90;;;22.50;91.70;;;;;;4994492;28;20457;-81
2022/05/16 09:07:52;;;;;;;9.05;2.72;;;22.70;91.70;;;;;;4949375;28;20502;-81
2022/05/16 09:10:23;;;;;;;9.73;3.15;;;23.20;90.80;;;;;;4966959;28;20051;-82
2022/05/16 09:13:16;;;;;;;7.68;2.92;;;23.50;90.90;;;;;;4977800;28;20141;-81
2022/05/16 09:16:13;;;;;;;10.10;2.75;;;23.50;89.60;;;;;;5003259;28;20100;-83
2022/05/16 09:19:01;;;;;;;8.48;2.97;;;23.80;91.40;;;;;;4997641;28;20046;-82
2022/05/16 09:22:12;;;;;;;8.50;3.35;;;23.90;90.00;;;;;;4993917;28;20105;-82
2022/05/16 09:24:49;;;;;;;7.70;3.38;;;23.70;89.10;;;;;;4979391;28;20054;-83
2022/05/16 09:30:36;;;;;;;9.85;2.67;;;24.10;91.10;;;;;;4993509;28;20054;-83
2022/05/16 09:33:09;;;;;;;8.90;2.97;;;24.60;91.20;;;;;;4994039;28;20054;-80
2022/05/16 09:36:01;;;;;;;8.40;2.72;;;24.70;84.10;;;;;;4976023;28;20504;-82
2022/05/16 09:38:27;;;;;;;7.72;3.03;;;24.70;82.80;;;;;;4979252;28;20061;-82
2022/05/16 09:40:59;;;;;;;9.35;2.60;;;24.80;83.70;;;;;;4943791;28;20065;-82
2022/05/16 09:43:30;;;;;;;7.07;2.53;;;25.00;84.70;;;;;;4992977;28;20058;-81
2022/05/16 09:46:25;;;;;;;8.10;2.53;;;25.20;81.60;;;;;;4975342;28;20573;-82
2022/05/16 09:49:10;;;;;;;9.95;2.80;;;25.30;79.40;;;;;;4991022;28;20565;-82
2022/05/16 09:52:05;;;;;;;11.55;3.20;;;25.50;79.00;;;;;;4994808;28;20054;-82
2022/05/16 09:54:36;;;;;;;9.43;2.85;;;25.60;75.30;;;;;;4961911;28;20402;-80
2022/05/16 09:57:18;;;;;;;11.50;2.72;;;25.60;74.20;;;;;;4996994;28;20046;-80
2022/05/16 10:00:38;;;;;;;10.60;3.10;;;25.80;75.30;;;;;;4975002;28;20066;-80
2022/05/16 10:03:19;;;;;;;11.13;3.10;;;25.80;73.00;;;;;;4965455;28;20050;-79
2022/05/16 10:05:47;;;;;;;12.23;3.42;;;26.10;74.40;;;;;;4993288;28;20057;-80
2022/05/16 10:08:22;;;;;;;8.13;3.17;;;26.40;74.10;;;;;;4992527;28;20116;-80
2022/05/16 10:10:48;;;;;;;8.75;2.95;;;26.50;72.50;;;;;;4992394;28;20137;-80
2022/05/16 10:13:16;;;;;;;10.43;3.05;;;26.60;69.80;;;;;;4993249;28;20133;-80
2022/05/16 10:15:44;;;;;;;10.13;3.30;;;26.70;67.80;;;;;;4996275;28;20054;-84
2022/05/16 10:18:14;;;;;;;13.38;4.03;;;26.80;65.90;;;;;;4975541;28;20526;-81
2022/05/16 10:20:46;;;;;;;9.30;2.78;;;26.80;63.80;;;;;;4991762;28;20399;-80
2022/05/16 10:23:39;;;;;;;8.45;2.95;;;27.30;66.20;;;;;;4992195;28;20057;-81
2022/05/16 10:26:10;;;;;;;15.38;3.00;;;28.00;62.00;;;;;;4971403;28;20062;-80
2022/05/16 10:28:56;;;;;;;9.50;3.22;;;28.20;61.10;;;;;;4975949;28;20050;-81
2022/05/16 10:34:18;;;;;;;8.07;2.95;;;28.20;61.00;;;;;;4975215;28;20188;-81
2022/05/16 10:36:54;;;;;;;7.72;3.00;;;28.40;56.60;;;;;;4992653;28;20140;-82
2022/05/16 10:39:24;;;;;;;15.30;2.97;;;28.80;55.90;;;;;;4974770;28;20061;-81
2022/05/16 10:42:02;;;;;;;8.02;2.53;;;28.80;55.00;;;;;;4975074;28;20109;-84
2022/05/16 10:44:54;;;;;;;12.65;3.40;;;28.80;53.60;;;;;;4992701;28;20051;-83
2022/05/16 10:47:29;;;;;;;8.68;2.78;;;29.50;55.10;;;;;;4987068;28;20050;-82
2022/05/16 10:50:13;;;;;;;12.88;3.72;;;29.40;53.50;;;;;;4992331;28;20054;-82
2022/05/16 10:52:46;;;;;;;13.85;3.90;;;28.80;50.90;;;;;;4992055;28;20054;-84
2022/05/16 10:55:13;;;;;;;6.57;2.42;;;28.70;52.40;;;;;;4991843;28;20176;-82
2022/05/16 10:58:04;;;;;;;12.20;3.10;;;28.60;52.30;;;;;;4974169;28;20139;-84
2022/05/16 11:01:00;;;;;;;9.73;2.78;;;28.30;50.60;;;;;;4972968;28;20341;-82
2022/05/16 11:03:34;;;;;;;11.70;3.15;;;28.40;52.10;;;;;;4981992;28;20062;-82
2022/05/16 11:06:27;;;;;;;7.70;2.67;;;28.20;52.40;;;;;;4974279;28;20172;-81
2022/05/16 11:09:15;;;;;;;13.15;3.35;;;28.20;54.20;;;;;;4972628;28;20046;-82
2022/05/16 11:11:53;;;;;;;10.32;2.45;;;28.10;53.40;;;;;;4971899;28;20491;-81
2022/05/16 11:14:48;;;;;;;8.27;2.90;;;28.00;53.60;;;;;;4970832;28;20065;-80
2022/05/16 11:17:29;;;;;;;9.57;3.30;;;27.90;53.60;;;;;;4972752;28;20062;-82
2022/05/16 11:20:08;;;;;;;11.93;3.10;;;27.80;53.90;;;;;;4974553;28;20133;-80
2022/05/16 11:22:40;;;;;;;8.75;2.80;;;27.80;53.60;;;;;;4971003;28;20050;-80
2022/05/16 11:25:15;;;;;;;11.00;2.80;;;27.60;52.20;;;;;;4973291;28;20503;-81
2022/05/16 11:28:17;;;;;;;7.18;2.40;;;27.40;52.70;;;;;;4972893;28;20047;-82
2022/05/16 11:30:53;;;;;;;11.27;2.42;;;27.30;53.20;;;;;;4959831;28;20054;-84
2022/05/16 11:33:21;;;;;;;8.30;2.63;;;27.20;53.60;;;;;;4975669;28;20148;-83
2022/05/16 11:35:51;;;;;;;12.15;2.58;;;27.10;53.40;;;;;;4977695;28;20053;-83
2022/05/16 11:38:55;;;;;;;10.43;2.53;;;27.10;53.50;;;;;;4975166;28;20059;-83
2022/05/16 11:41:40;;;;;;;7.72;2.72;;;27.00;52.10;;;;;;4939702;28;20050;-85
2022/05/16 11:44:23;;;;;;;7.53;2.08;;;27.10;54.80;;;;;;4975829;28;20097;-83
2022/05/16 11:47:31;;;;;;;8.07;2.20;;;27.10;54.60;;;;;;4978397;28;20051;-82
2022/05/16 11:50:24;;;;;;;8.73;2.55;;;27.10;53.40;;;;;;4975095;28;20397;-84
2022/05/16 11:52:58;;;;;;;7.82;2.85;;;27.00;53.70;;;;;;4976030;28;20058;-85
2022/05/16 12:01:07;;;;;;;8.73;2.38;;;27.10;54.30;;;;;;4990778;28;20101;-81
2022/05/16 12:03:39;;;;;;;11.52;2.58;;;27.20;54.60;;;;;;4982471;28;20066;-80
2022/05/16 12:06:32;;;;;;;9.90;2.50;;;27.40;55.80;;;;;;4981566;28;20157;-82
2022/05/16 12:09:18;;;;;;;10.05;2.92;;;27.50;58.00;;;;;;4977567;28;20141;-83
2022/05/16 12:12:22;;;;;;;9.68;2.38;;;27.40;55.50;;;;;;4978616;28;20057;-81
2022/05/16 12:15:15;;;;;;;8.18;2.47;;;27.40;56.70;;;;;;4995142;28;20054;-81
2022/05/16 12:18:28;;;;;;;7.13;2.65;;;27.50;55.80;;;;;;4977611;28;20058;-81
2022/05/16 12:21:12;;;;;;;8.00;2.20;;;27.90;56.30;;;;;;4979676;28;20074;-82
2022/05/16 12:23:44;;;;;;;;;;;28.70;58.40;;;;;;4977995;28;20046;-81
2022/05/16 12:26:10;;;;;;;7.72;2.38;;;29.00;56.50;;;;;;4995431;28;19948;-85
2022/05/16 12:28:36;;;;;;;11.57;3.10;;;29.30;54.60;;;;;;4979179;28;20058;-83
2022/05/16 12:31:05;;;;;;;9.82;2.92;;;29.40;53.80;;;;;;4978124;28;20104;-81
2022/05/16 12:33:48;;;;;;;9.93;3.13;;;29.80;52.40;;;;;;4994822;28;20486;-82
2022/05/16 12:36:16;;;;;;;17.85;2.97;;;29.60;51.20;;;;;;4979558;28;20059;-81
2022/05/16 12:38:44;;;;;;;7.68;3.22;;;30.00;52.30;;;;;;4996707;28;20101;-84
2022/05/16 12:41:51;;;;;;;14.45;3.22;;;30.40;52.90;;;;;;4995256;28;20054;-83
2022/05/16 12:44:34;;;;;;;12.43;3.30;;;30.30;50.10;;;;;;4994628;28;20073;-81
2022/05/16 12:47:32;;;;;;;12.00;3.25;;;29.90;50.70;;;;;;4997456;28;20149;-81
2022/05/16 12:50:01;;;;;;;12.15;3.30;;;29.20;51.70;;;;;;4996630;28;20100;-81
2022/05/16 12:52:48;;;;;;;9.30;3.42;;;29.00;52.80;;;;;;5000733;28;20054;-82
2022/05/16 12:55:32;;;;;;;12.27;3.45;;;29.10;52.40;;;;;;4996477;28;20054;-83
2022/05/16 12:58:12;;;;;;;10.48;2.97;;;29.30;52.70;;;;;;4995738;28;20056;-80
2022/05/16 13:01:13;;;;;;;9.70;3.20;;;29.30;53.50;;;;;;4996779;28;20125;-83
2022/05/16 13:03:51;;;;;;;8.88;3.17;;;29.80;53.10;;;;;;4977890;28;20126;-81
2022/05/16 13:06:39;;;;;;;9.68;2.88;;;29.60;52.60;;;;;;4998118;28;20376;-86
2022/05/16 13:09:13;;;;;;;10.55;3.30;;;29.40;53.10;;;;;;4995482;28;20058;-86
2022/05/16 13:11:50;;;;;;;8.38;3.10;;;29.20;53.10;;;;;;4993834;28;20061;-85
2022/05/16 13:14:21;;;;;;;19.63;3.72;;;29.20;54.20;;;;;;4976746;28;20058;-83
2022/05/16 13:16:57;;;;;;;10.73;4.15;;;29.00;54.50;;;;;;4976557;28;20046;-82
2022/05/16 13:19:30;;;;;;;10.32;3.53;;;28.70;54.70;;;;;;4995395;28;20058;-84
2022/05/16 13:22:14;;;;;;;9.13;3.40;;;28.40;55.10;;;;;;4962873;28;20047;-85
2022/05/16 13:24:39;;;;;;;;;;;28.30;56.40;;;;;;4979548;28;20069;-82
2022/05/16 13:29:54;;;;;;;8.05;3.50;;;28.50;56.90;;;;;;4976992;28;20152;-84
2022/05/16 13:32:29;;;;;;;6.65;3.00;;;28.70;57.70;;;;;;4976872;28;20406;-82
2022/05/16 13:35:01;;;;;;;12.82;4.50;;;28.80;57.80;;;;;;4994632;28;20406;-82
2022/05/16 13:37:44;;;;;;;11.27;4.72;;;28.50;58.80;;;;;;4976630;28;20112;-82
2022/05/16 13:40:20;;;;;;;10.98;4.97;;;28.30;59.60;;;;;;4993752;28;20051;-83
2022/05/16 13:42:46;;;;;;;12.30;4.20;;;27.90;62.70;;;;;;4975902;28;20100;-80
2022/05/16 13:45:12;;;;;;;14.57;4.85;;;27.60;66.00;;;;;;4976330;28;20442;-81
2022/05/16 13:47:44;;;;;;;11.80;4.22;;;27.50;67.20;;;;;;5000194;28;20073;-83
2022/05/16 13:50:31;;;;;;;13.40;5.05;;;27.70;69.10;;;;;;4964091;28;20046;-84
2022/05/16 13:52:57;;;;;;;14.27;6.15;;;27.70;68.60;;;;;;4976038;28;20062;-81